DLH220 EDDP-EDDS
Flight info
| Callsign | DLH220 |
|---|---|
| Flight time | 0h 45m |
| Altitude | 24000 |
| Route | NEVKO2N NEVKO Q243 BAMKI Z94 GORKO T726 TOSTU/N0427F230 T726 LBU |
| Aircraft | A320/M-SDE3FGHIRWY/LB1 |
Departure
| Time | 2026-05-04 18:35 |
|---|---|
| Airport | Leipzig/Halle Airport (EDDP) |
Arrival
| Time | 2026-05-04 19:21 |
|---|---|
| Airport | Stuttgart Airport (EDDS) |
| Time | Latitude | Longitude | Altitude | Speed | Heading |
|---|---|---|---|---|---|
| 2026-05-04 18:08 | 51.41932 | 12.21880 | 436 ft | 0 kts | 15° |
| 2026-05-04 18:24 | 51.41918 | 12.21874 | 428 ft | 4 kts | 17° |
| 2026-05-04 18:24 | 51.41892 | 12.21861 | 431 ft | 4 kts | 20° |
| 2026-05-04 18:24 | 51.41868 | 12.21844 | 427 ft | 4 kts | 30° |
| 2026-05-04 18:25 | 51.41848 | 12.21818 | 437 ft | 4 kts | 66° |
| 2026-05-04 18:25 | 51.41845 | 12.21799 | 429 ft | 0 kts | 105° |
| 2026-05-04 18:28 | 51.41835 | 12.21857 | 434 ft | 11 kts | 105° |
| 2026-05-04 18:28 | 51.41816 | 12.21968 | 436 ft | 9 kts | 105° |
| 2026-05-04 18:28 | 51.41793 | 12.22104 | 448 ft | 19 kts | 104° |
| 2026-05-04 18:28 | 51.41751 | 12.22352 | 454 ft | 24 kts | 105° |
| 2026-05-04 18:29 | 51.41710 | 12.22600 | 460 ft | 22 kts | 106° |
| 2026-05-04 18:29 | 51.41669 | 12.22833 | 464 ft | 22 kts | 105° |
| 2026-05-04 18:29 | 51.41620 | 12.23111 | 464 ft | 30 kts | 106° |
| 2026-05-04 18:29 | 51.41606 | 12.23447 | 463 ft | 31 kts | 84° |
| 2026-05-04 18:30 | 51.41630 | 12.23990 | 470 ft | 28 kts | 85° |
| 2026-05-04 18:30 | 51.41645 | 12.24294 | 475 ft | 27 kts | 85° |
| 2026-05-04 18:30 | 51.41659 | 12.24601 | 475 ft | 28 kts | 85° |
| 2026-05-04 18:31 | 51.41755 | 12.24808 | 478 ft | 24 kts | 13° |
| 2026-05-04 18:31 | 51.41912 | 12.24871 | 486 ft | 24 kts | 13° |
| 2026-05-04 18:31 | 51.42090 | 12.24938 | 488 ft | 28 kts | 13° |
| 2026-05-04 18:31 | 51.42292 | 12.25016 | 476 ft | 32 kts | 13° |
| 2026-05-04 18:32 | 51.42519 | 12.25106 | 470 ft | 35 kts | 14° |
| 2026-05-04 18:32 | 51.42768 | 12.25207 | 457 ft | 38 kts | 14° |
| 2026-05-04 18:32 | 51.42981 | 12.25325 | 451 ft | 27 kts | 62° |
| 2026-05-04 18:32 | 51.43003 | 12.25622 | 450 ft | 27 kts | 86° |
| 2026-05-04 18:33 | 51.43017 | 12.25928 | 454 ft | 27 kts | 85° |
| 2026-05-04 18:33 | 51.43033 | 12.26240 | 452 ft | 29 kts | 85° |
| 2026-05-04 18:33 | 51.43047 | 12.26552 | 452 ft | 28 kts | 85° |
| 2026-05-04 18:33 | 51.43095 | 12.26741 | 456 ft | 16 kts | 5° |
| 2026-05-04 18:34 | 51.43209 | 12.26736 | 457 ft | 17 kts | 356° |
| 2026-05-04 18:34 | 51.43336 | 12.26651 | 454 ft | 23 kts | 306° |
| 2026-05-04 18:34 | 51.43351 | 12.26390 | 452 ft | 28 kts | 266° |
| 2026-05-04 18:34 | 51.43320 | 12.25680 | 453 ft | 107 kts | 266° |
| 2026-05-04 18:35 | 51.43252 | 12.24088 | 539 ft | 169 kts | 266° |
| 2026-05-04 18:35 | 51.43129 | 12.22193 | 1391 ft | 175 kts | 263° |
| 2026-05-04 18:35 | 51.43010 | 12.20196 | 2185 ft | 189 kts | 266° |
| 2026-05-04 18:35 | 51.42912 | 12.17968 | 2599 ft | 212 kts | 266° |
| 2026-05-04 18:36 | 51.42807 | 12.15474 | 3025 ft | 236 kts | 266° |
| 2026-05-04 18:36 | 51.42687 | 12.12721 | 3539 ft | 257 kts | 266° |
| 2026-05-04 18:36 | 51.42556 | 12.09841 | 4424 ft | 261 kts | 265° |
| 2026-05-04 18:36 | 51.42419 | 12.06929 | 5399 ft | 263 kts | 265° |
| 2026-05-04 18:37 | 51.42280 | 12.03998 | 6359 ft | 266 kts | 264° |
| 2026-05-04 18:37 | 51.42138 | 12.01019 | 6768 ft | 268 kts | 264° |
| 2026-05-04 18:37 | 51.41825 | 11.98099 | 6953 ft | 267 kts | 250° |
| 2026-05-04 18:37 | 51.40984 | 11.95429 | 7684 ft | 270 kts | 234° |
| 2026-05-04 18:38 | 51.39707 | 11.93217 | 8580 ft | 273 kts | 218° |
| 2026-05-04 18:38 | 51.38104 | 11.91570 | 9495 ft | 275 kts | 210° |
| 2026-05-04 18:38 | 51.36437 | 11.90023 | 10239 ft | 284 kts | 210° |
| 2026-05-04 18:38 | 51.34679 | 11.88401 | 10511 ft | 307 kts | 210° |
| 2026-05-04 18:39 | 51.32732 | 11.86606 | 10743 ft | 331 kts | 210° |
| 2026-05-04 18:39 | 51.30693 | 11.84723 | 10902 ft | 354 kts | 210° |
| 2026-05-04 18:39 | 51.28499 | 11.82697 | 11110 ft | 373 kts | 210° |
| 2026-05-04 18:39 | 51.26231 | 11.80601 | 11642 ft | 380 kts | 211° |
| 2026-05-04 18:40 | 51.24059 | 11.78169 | 12255 ft | 384 kts | 218° |
| 2026-05-04 18:40 | 51.21947 | 11.75521 | 12890 ft | 388 kts | 218° |
| 2026-05-04 18:40 | 51.19849 | 11.72781 | 13504 ft | 391 kts | 219° |
| 2026-05-04 18:40 | 51.17761 | 11.69967 | 14076 ft | 395 kts | 220° |
| 2026-05-04 18:41 | 51.15664 | 11.67096 | 14625 ft | 398 kts | 220° |
| 2026-05-04 18:41 | 51.13562 | 11.64205 | 15186 ft | 401 kts | 220° |
| 2026-05-04 18:41 | 51.11434 | 11.61289 | 15741 ft | 403 kts | 220° |
| 2026-05-04 18:41 | 51.09310 | 11.58404 | 16285 ft | 405 kts | 220° |
| 2026-05-04 18:42 | 51.07153 | 11.55493 | 16822 ft | 407 kts | 220° |
| 2026-05-04 18:42 | 51.04985 | 11.52584 | 17347 ft | 410 kts | 220° |
| 2026-05-04 18:42 | 51.02809 | 11.49676 | 17874 ft | 412 kts | 220° |
| 2026-05-04 18:42 | 51.00592 | 11.46718 | 18356 ft | 415 kts | 220° |
| 2026-05-04 18:43 | 50.98376 | 11.43759 | 18757 ft | 418 kts | 220° |
| 2026-05-04 18:43 | 50.96141 | 11.40774 | 19161 ft | 421 kts | 220° |
| 2026-05-04 18:43 | 50.93897 | 11.37780 | 19571 ft | 423 kts | 220° |
| 2026-05-04 18:43 | 50.91637 | 11.34766 | 20000 ft | 425 kts | 220° |
| 2026-05-04 18:44 | 50.89370 | 11.31746 | 20397 ft | 427 kts | 220° |
| 2026-05-04 18:44 | 50.87861 | 11.29738 | 20668 ft | 428 kts | 220° |
| 2026-05-04 18:44 | 50.84796 | 11.25666 | 21173 ft | 431 kts | 220° |
| 2026-05-04 18:44 | 50.82493 | 11.22609 | 21571 ft | 433 kts | 220° |
| 2026-05-04 18:45 | 50.80176 | 11.19544 | 21946 ft | 436 kts | 220° |
| 2026-05-04 18:45 | 50.77842 | 11.16461 | 22288 ft | 438 kts | 221° |
| 2026-05-04 18:45 | 50.75504 | 11.13370 | 22648 ft | 440 kts | 221° |
| 2026-05-04 18:45 | 50.73179 | 11.10300 | 22985 ft | 442 kts | 221° |
| 2026-05-04 18:46 | 50.70816 | 11.07188 | 23285 ft | 443 kts | 220° |
| 2026-05-04 18:46 | 50.68417 | 11.04037 | 23558 ft | 444 kts | 220° |
| 2026-05-04 18:46 | 50.66071 | 11.00955 | 23784 ft | 445 kts | 221° |
| 2026-05-04 18:46 | 50.63681 | 10.97821 | 23932 ft | 449 kts | 220° |
| 2026-05-04 18:47 | 50.61259 | 10.94649 | 23982 ft | 456 kts | 220° |
| 2026-05-04 18:47 | 50.58809 | 10.91444 | 23980 ft | 458 kts | 220° |
| 2026-05-04 18:47 | 50.56356 | 10.88245 | 23982 ft | 459 kts | 220° |
| 2026-05-04 18:47 | 50.53890 | 10.85039 | 23978 ft | 459 kts | 220° |
| 2026-05-04 18:48 | 50.51430 | 10.81840 | 23980 ft | 459 kts | 220° |
| 2026-05-04 18:48 | 50.48969 | 10.78641 | 23979 ft | 459 kts | 220° |
| 2026-05-04 18:48 | 50.46505 | 10.75441 | 23975 ft | 460 kts | 220° |
| 2026-05-04 18:48 | 50.44044 | 10.72241 | 23974 ft | 460 kts | 220° |
| 2026-05-04 18:49 | 50.41584 | 10.69047 | 23977 ft | 460 kts | 220° |
| 2026-05-04 18:49 | 50.39116 | 10.65852 | 23987 ft | 459 kts | 220° |
| 2026-05-04 18:49 | 50.36652 | 10.62673 | 23973 ft | 459 kts | 220° |
| 2026-05-04 18:49 | 50.34184 | 10.59496 | 23968 ft | 459 kts | 220° |
| 2026-05-04 18:50 | 50.31717 | 10.56326 | 23969 ft | 459 kts | 220° |
| 2026-05-04 18:50 | 50.29250 | 10.53158 | 23962 ft | 459 kts | 220° |
| 2026-05-04 18:50 | 50.26780 | 10.49987 | 23961 ft | 460 kts | 220° |
| 2026-05-04 18:50 | 50.24308 | 10.46815 | 23960 ft | 460 kts | 220° |
| 2026-05-04 18:51 | 50.21841 | 10.43645 | 23959 ft | 459 kts | 221° |
| 2026-05-04 18:51 | 50.19565 | 10.40153 | 23957 ft | 459 kts | 229° |
| 2026-05-04 18:51 | 50.17668 | 10.36153 | 23954 ft | 459 kts | 237° |
| 2026-05-04 18:51 | 50.16003 | 10.31904 | 23950 ft | 460 kts | 238° |
| 2026-05-04 18:52 | 50.14328 | 10.27645 | 23944 ft | 460 kts | 238° |
| 2026-05-04 18:52 | 50.12647 | 10.23390 | 23944 ft | 461 kts | 238° |
| 2026-05-04 18:52 | 50.10961 | 10.19140 | 23946 ft | 462 kts | 238° |
| 2026-05-04 18:52 | 50.09214 | 10.14952 | 23946 ft | 462 kts | 233° |
| 2026-05-04 18:53 | 50.07105 | 10.11191 | 23945 ft | 461 kts | 224° |
| 2026-05-04 18:53 | 50.04642 | 10.07999 | 23955 ft | 462 kts | 215° |
| 2026-05-04 18:53 | 50.01882 | 10.05432 | 23956 ft | 462 kts | 208° |
| 2026-05-04 18:53 | 49.99032 | 10.03109 | 23955 ft | 463 kts | 208° |
| 2026-05-04 18:54 | 49.96179 | 10.00784 | 23952 ft | 462 kts | 208° |
| 2026-05-04 18:54 | 49.93334 | 9.98460 | 23959 ft | 462 kts | 208° |
| 2026-05-04 18:54 | 49.90492 | 9.96135 | 23961 ft | 461 kts | 208° |
| 2026-05-04 18:54 | 49.87655 | 9.93814 | 23967 ft | 461 kts | 208° |
| 2026-05-04 18:55 | 49.84819 | 9.91500 | 23961 ft | 461 kts | 208° |
| 2026-05-04 18:55 | 49.79131 | 9.86884 | 23969 ft | 461 kts | 208° |
| 2026-05-04 18:55 | 49.76299 | 9.84598 | 23984 ft | 459 kts | 208° |
| 2026-05-04 18:56 | 49.73388 | 9.82584 | 23996 ft | 459 kts | 200° |
| 2026-05-04 18:56 | 49.70304 | 9.81304 | 24002 ft | 459 kts | 191° |
| 2026-05-04 18:56 | 49.67129 | 9.80812 | 24002 ft | 460 kts | 182° |
| 2026-05-04 18:56 | 49.63925 | 9.80919 | 24003 ft | 460 kts | 180° |
| 2026-05-04 18:57 | 49.60728 | 9.81164 | 23999 ft | 461 kts | 176° |
| 2026-05-04 18:57 | 49.57559 | 9.81966 | 23998 ft | 462 kts | 172° |
| 2026-05-04 18:57 | 49.54401 | 9.82859 | 23989 ft | 461 kts | 172° |
| 2026-05-04 18:57 | 49.51243 | 9.83743 | 23984 ft | 461 kts | 172° |
| 2026-05-04 18:58 | 49.48082 | 9.84616 | 23979 ft | 461 kts | 172° |
| 2026-05-04 18:58 | 49.44929 | 9.85482 | 23973 ft | 458 kts | 172° |
| 2026-05-04 18:58 | 49.41807 | 9.86338 | 23959 ft | 455 kts | 172° |
| 2026-05-04 18:58 | 49.38694 | 9.87190 | 23976 ft | 456 kts | 172° |
| 2026-05-04 18:59 | 49.35567 | 9.88045 | 23975 ft | 456 kts | 172° |
| 2026-05-04 18:59 | 49.32444 | 9.88898 | 23975 ft | 457 kts | 172° |
| 2026-05-04 18:59 | 49.29317 | 9.89756 | 23975 ft | 457 kts | 172° |
| 2026-05-04 18:59 | 49.26178 | 9.90621 | 23975 ft | 457 kts | 172° |
| 2026-05-04 19:00 | 49.23028 | 9.91085 | 23973 ft | 453 kts | 185° |
| 2026-05-04 19:00 | 49.19941 | 9.90265 | 23621 ft | 450 kts | 199° |
| 2026-05-04 19:00 | 49.17217 | 9.88140 | 22446 ft | 443 kts | 217° |
| 2026-05-04 19:00 | 49.15050 | 9.84811 | 20892 ft | 434 kts | 234° |
| 2026-05-04 19:01 | 49.13665 | 9.80771 | 19445 ft | 428 kts | 248° |
| 2026-05-04 19:01 | 49.12662 | 9.76506 | 18399 ft | 433 kts | 249° |
| 2026-05-04 19:01 | 49.11637 | 9.72210 | 17591 ft | 429 kts | 248° |
| 2026-05-04 19:01 | 49.10607 | 9.67966 | 16701 ft | 421 kts | 248° |
| 2026-05-04 19:02 | 49.09607 | 9.63875 | 15968 ft | 399 kts | 248° |
| 2026-05-04 19:02 | 49.08674 | 9.60059 | 15742 ft | 369 kts | 248° |
| 2026-05-04 19:02 | 49.07809 | 9.56517 | 15453 ft | 346 kts | 248° |
| 2026-05-04 19:02 | 49.06980 | 9.53138 | 14781 ft | 336 kts | 248° |
| 2026-05-04 19:03 | 49.06159 | 9.49834 | 14022 ft | 331 kts | 245° |
| 2026-05-04 19:03 | 49.05017 | 9.46821 | 13207 ft | 326 kts | 231° |
| 2026-05-04 19:03 | 49.03452 | 9.44379 | 12381 ft | 320 kts | 217° |
| 2026-05-04 19:03 | 49.01584 | 9.42581 | 11586 ft | 315 kts | 208° |
| 2026-05-04 19:04 | 48.99674 | 9.40995 | 10810 ft | 311 kts | 208° |
| 2026-05-04 19:04 | 48.97819 | 9.39454 | 10493 ft | 293 kts | 208° |
| 2026-05-04 19:04 | 48.96073 | 9.38003 | 10107 ft | 280 kts | 208° |
| 2026-05-04 19:04 | 48.94391 | 9.36606 | 9969 ft | 274 kts | 206° |
| 2026-05-04 19:05 | 48.92595 | 9.35702 | 9977 ft | 274 kts | 187° |
| 2026-05-04 19:05 | 48.90692 | 9.35815 | 9976 ft | 275 kts | 167° |
| 2026-05-04 19:05 | 48.88932 | 9.36942 | 9975 ft | 277 kts | 148° |
| 2026-05-04 19:05 | 48.87409 | 9.38753 | 9978 ft | 279 kts | 143° |
| 2026-05-04 19:06 | 48.85899 | 9.40608 | 9980 ft | 279 kts | 143° |
| 2026-05-04 19:06 | 48.84390 | 9.42455 | 9980 ft | 279 kts | 143° |
| 2026-05-04 19:06 | 48.82898 | 9.44278 | 9979 ft | 268 kts | 143° |
| 2026-05-04 19:06 | 48.81484 | 9.46000 | 9979 ft | 253 kts | 144° |
| 2026-05-04 19:07 | 48.80149 | 9.47625 | 9977 ft | 240 kts | 144° |
| 2026-05-04 19:07 | 48.78883 | 9.49168 | 9980 ft | 227 kts | 144° |
| 2026-05-04 19:07 | 48.77648 | 9.50519 | 9971 ft | 211 kts | 158° |
| 2026-05-04 19:07 | 48.76278 | 9.50925 | 9976 ft | 198 kts | 186° |
| 2026-05-04 19:08 | 48.74994 | 9.50304 | 9976 ft | 191 kts | 212° |
| 2026-05-04 19:08 | 48.74087 | 9.48885 | 9989 ft | 190 kts | 237° |
| 2026-05-04 19:08 | 48.73649 | 9.46987 | 9987 ft | 192 kts | 249° |
| 2026-05-04 19:08 | 48.72973 | 9.45329 | 9886 ft | 183 kts | 215° |
| 2026-05-04 19:09 | 48.71817 | 9.44715 | 9456 ft | 186 kts | 178° |
| 2026-05-04 19:09 | 48.70563 | 9.45376 | 8889 ft | 200 kts | 149° |
| 2026-05-04 19:09 | 48.69418 | 9.46631 | 8440 ft | 205 kts | 144° |
| 2026-05-04 19:09 | 48.68292 | 9.47957 | 8037 ft | 204 kts | 144° |
| 2026-05-04 19:10 | 48.67171 | 9.49274 | 7553 ft | 204 kts | 144° |
| 2026-05-04 19:10 | 48.66042 | 9.50588 | 7133 ft | 205 kts | 144° |
| 2026-05-04 19:10 | 48.64917 | 9.51885 | 7044 ft | 204 kts | 144° |
| 2026-05-04 19:10 | 48.63779 | 9.53191 | 7041 ft | 206 kts | 144° |
| 2026-05-04 19:11 | 48.62638 | 9.54500 | 7041 ft | 206 kts | 144° |
| 2026-05-04 19:11 | 48.61497 | 9.55809 | 7042 ft | 206 kts | 144° |
| 2026-05-04 19:11 | 48.60489 | 9.57311 | 6825 ft | 205 kts | 120° |
| 2026-05-04 19:11 | 48.60204 | 9.59400 | 6476 ft | 209 kts | 85° |
| 2026-05-04 19:12 | 48.60805 | 9.61397 | 6156 ft | 212 kts | 52° |
| 2026-05-04 19:12 | 48.62554 | 9.64020 | 5400 ft | 214 kts | 44° |
| 2026-05-04 19:12 | 48.64103 | 9.65825 | 4988 ft | 209 kts | 20° |
| 2026-05-04 19:13 | 48.65524 | 9.66069 | 4689 ft | 206 kts | 358° |
| 2026-05-04 19:13 | 48.66943 | 9.65905 | 4366 ft | 203 kts | 354° |
| 2026-05-04 19:13 | 48.68339 | 9.65690 | 4082 ft | 199 kts | 354° |
| 2026-05-04 19:13 | 48.69732 | 9.65448 | 4000 ft | 206 kts | 354° |
| 2026-05-04 19:14 | 48.71167 | 9.65191 | 4006 ft | 209 kts | 354° |
| 2026-05-04 19:14 | 48.72619 | 9.64938 | 4005 ft | 211 kts | 354° |
| 2026-05-04 19:14 | 48.74076 | 9.64690 | 4012 ft | 211 kts | 354° |
| 2026-05-04 19:14 | 48.75029 | 9.64429 | 4006 ft | 211 kts | 341° |
| 2026-05-04 19:15 | 48.76436 | 9.62461 | 4008 ft | 215 kts | 294° |
| 2026-05-04 19:15 | 48.76731 | 9.60226 | 4016 ft | 218 kts | 276° |
| 2026-05-04 19:15 | 48.76558 | 9.57953 | 4009 ft | 221 kts | 251° |
| 2026-05-04 19:15 | 48.75940 | 9.55822 | 4008 ft | 221 kts | 245° |
| 2026-05-04 19:16 | 48.75502 | 9.54422 | 4007 ft | 220 kts | 249° |
| 2026-05-04 19:16 | 48.74950 | 9.52258 | 4006 ft | 221 kts | 251° |
| 2026-05-04 19:16 | 48.74359 | 9.50109 | 4012 ft | 220 kts | 248° |
| 2026-05-04 19:16 | 48.73842 | 9.47933 | 4017 ft | 220 kts | 253° |
| 2026-05-04 19:17 | 48.73410 | 9.45728 | 3975 ft | 214 kts | 255° |
| 2026-05-04 19:17 | 48.73014 | 9.43612 | 3760 ft | 204 kts | 255° |
| 2026-05-04 19:17 | 48.72636 | 9.41591 | 3517 ft | 194 kts | 256° |
| 2026-05-04 19:17 | 48.72277 | 9.39672 | 3271 ft | 185 kts | 256° |
| 2026-05-04 19:18 | 48.71936 | 9.37853 | 3050 ft | 173 kts | 257° |
| 2026-05-04 19:18 | 48.71620 | 9.36171 | 2809 ft | 162 kts | 257° |
| 2026-05-04 19:18 | 48.71324 | 9.34597 | 2602 ft | 152 kts | 257° |
| 2026-05-04 19:18 | 48.71041 | 9.33090 | 2408 ft | 147 kts | 258° |
| 2026-05-04 19:19 | 48.70763 | 9.31615 | 2210 ft | 143 kts | 257° |
| 2026-05-04 19:19 | 48.70495 | 9.30186 | 2010 ft | 140 kts | 257° |
| 2026-05-04 19:19 | 48.70230 | 9.28784 | 1823 ft | 137 kts | 256° |
| 2026-05-04 19:19 | 48.69970 | 9.27402 | 1638 ft | 136 kts | 257° |
| 2026-05-04 19:20 | 48.69711 | 9.26026 | 1464 ft | 137 kts | 257° |
| 2026-05-04 19:20 | 48.69452 | 9.24650 | 1344 ft | 135 kts | 256° |
| 2026-05-04 19:20 | 48.69224 | 9.23351 | 1285 ft | 93 kts | 256° |
| 2026-05-04 19:20 | 48.69093 | 9.22741 | 1286 ft | 54 kts | 252° |
| 2026-05-04 19:21 | 48.68997 | 9.22224 | 1285 ft | 49 kts | 253° |
| 2026-05-04 19:21 | 48.68942 | 9.21743 | 1285 ft | 45 kts | 276° |
| 2026-05-04 19:21 | 48.68970 | 9.21572 | 1288 ft | 2 kts | 282° |
| 2026-05-04 19:21 | 48.68983 | 9.21489 | 1286 ft | 11 kts | 286° |
| 2026-05-04 19:22 | 48.69002 | 9.21357 | 1285 ft | 13 kts | 261° |
| 2026-05-04 19:22 | 48.68970 | 9.21227 | 1285 ft | 15 kts | 260° |
| 2026-05-04 19:22 | 48.68941 | 9.21064 | 1287 ft | 17 kts | 253° |
| 2026-05-04 19:22 | 48.68908 | 9.20873 | 1287 ft | 20 kts | 256° |
| 2026-05-04 19:23 | 48.68876 | 9.20682 | 1287 ft | 20 kts | 254° |
| 2026-05-04 19:23 | 48.68836 | 9.20468 | 1287 ft | 22 kts | 253° |
| 2026-05-04 19:23 | 48.68790 | 9.20231 | 1285 ft | 24 kts | 255° |
| 2026-05-04 19:23 | 48.68769 | 9.19994 | 1288 ft | 19 kts | 307° |
| 2026-05-04 19:24 | 48.68876 | 9.19870 | 1289 ft | 16 kts | 331° |
| 2026-05-04 19:24 | 48.68873 | 9.19748 | 1289 ft | 13 kts | 253° |
| 2026-05-04 19:24 | 48.68844 | 9.19597 | 1288 ft | 16 kts | 255° |
| 2026-05-04 19:24 | 48.68814 | 9.19439 | 1288 ft | 0 kts | 252° |
| 2026-05-04 19:25 | 48.68816 | 9.19400 | 1285 ft | 7 kts | 295° |
| 2026-05-04 19:25 | 48.68867 | 9.19367 | 1288 ft | 10 kts | 343° |
| 2026-05-04 19:25 | 48.68887 | 9.19358 | 1287 ft | 0 kts | 344° |